CheckWX is a tool to help pilots better visualize weather data.  It is not intended as a substitute for an official pre-flight weather briefing.

16:42:59 UTC

KSYF METAR
Cheyenne County Municipal Airport
St Francis, Kansas, USA
Current

8 mins ago

KSYF 211635Z AUTO 00000KT 10SM OVC016 00/M03 A3018 RMK AO2 T10031033 PWINO
Observed
Nov-21 @ 16:35 UTC
Visibility
10 SM
Flight Rules
MVFR
Cloud Levels
  • Overcast at 1,600' AGL
Temperature
-0°C / 32°F
Dewpoint
-3°C / 27°F
Humidity
80%
Altimeter
30.18" Hg
Pressure
1022.02 hPa
Previous

28 mins ago

KSYF 211615Z AUTO 35006KT 10SM OVC016 00/M03 A3018 RMK AO2 T10041031 PWINO
Observed
Nov-21 @ 16:15 UTC
Wind
  • 350° at 6 KTS
Visibility
10 SM
Flight Rules
MVFR
Cloud Levels
  • Overcast at 1,600' AGL
Temperature
-0°C / 32°F
Dewpoint
-3°C / 27°F
Humidity
80%
Altimeter
30.18" Hg
Pressure
1022.02 hPa
Previous

48 mins ago

KSYF 211555Z AUTO 36006KT 10SM OVC014 M01/M03 A3018 RMK AO2 T10101033 PWINO
Observed
Nov-21 @ 15:55 UTC
Wind
  • 360° at 6 KTS
Visibility
10 SM
Flight Rules
MVFR
Cloud Levels
  • Overcast at 1,400' AGL
Temperature
-1°C / 30°F
Dewpoint
-3°C / 27°F
Humidity
86%
Altimeter
30.18" Hg
Pressure
1022.02 hPa